createdAt,value
2023-03-30T00:01:51.036Z,5.22
2023-03-30T00:04:24.317Z,4.32
2023-03-30T00:06:56.208Z,5.82
2023-03-30T00:09:33.987Z,6.38
2023-03-30T00:12:05.526Z,4.00
2023-03-30T00:17:10.700Z,4.65
2023-03-30T00:22:13.171Z,3.20
2023-03-30T00:24:44.396Z,5.72
2023-03-30T00:27:15.573Z,4.18
2023-03-30T00:29:46.966Z,3.75
2023-03-30T00:32:18.378Z,3.47
2023-03-30T00:37:21.204Z,4.15
2023-03-30T00:39:55.219Z,3.17
2023-03-30T00:42:27.061Z,3.67
2023-03-30T00:45:30.427Z,4.35
2023-03-30T00:48:23.950Z,4.82
2023-03-30T00:51:03.940Z,5.43
2023-03-30T00:53:41.324Z,4.53
2023-03-30T00:56:14.517Z,3.50
2023-03-30T00:58:47.945Z,5.55
2023-03-30T01:01:29.898Z,4.35
2023-03-30T01:04:05.160Z,2.88
2023-03-30T01:06:37.623Z,4.45
2023-03-30T01:09:09.964Z,4.90
2023-03-30T01:11:41.735Z,3.80
2023-03-30T01:14:14.704Z,4.45
2023-03-30T01:17:29.813Z,2.65
2023-03-30T01:20:14.311Z,4.88
2023-03-30T01:23:07.013Z,3.33
2023-03-30T01:25:42.019Z,3.83
2023-03-30T01:28:13.610Z,4.82
2023-03-30T01:31:08.910Z,3.67
2023-03-30T01:34:00.202Z,5.22
2023-03-30T01:36:35.711Z,5.25
2023-03-30T01:39:43.350Z,2.13
2023-03-30T01:42:23.328Z,5.07
2023-03-30T01:45:22.299Z,3.88
2023-03-30T01:48:27.680Z,3.20
2023-03-30T01:51:11.056Z,2.72
2023-03-30T01:54:05.128Z,4.28
2023-03-30T01:56:49.712Z,2.70
2023-03-30T01:59:31.116Z,3.35
2023-03-30T02:04:41.573Z,2.70
2023-03-30T02:07:17.091Z,3.05
2023-03-30T02:09:49.841Z,4.32
2023-03-30T02:12:22.255Z,1.58
2023-03-30T02:14:55.035Z,2.00
2023-03-30T02:17:30.754Z,3.20
2023-03-30T02:20:01.958Z,3.33
2023-03-30T02:22:34.363Z,2.47
2023-03-30T02:25:08.061Z,3.88
2023-03-30T02:27:40.158Z,3.08
2023-03-30T02:30:12.361Z,2.60
2023-03-30T02:32:55.894Z,2.78
2023-03-30T02:35:39.495Z,2.85
2023-03-30T02:38:16.857Z,3.30
2023-03-30T02:41:09.089Z,2.80
2023-03-30T02:44:24.957Z,4.97
2023-03-30T02:47:14.727Z,2.33
2023-03-30T02:50:11.516Z,2.83
2023-03-30T02:52:50.096Z,3.17
2023-03-30T02:56:14.145Z,3.65
2023-03-30T02:59:14.751Z,3.45
2023-03-30T03:01:55.904Z,1.35
2023-03-30T03:04:30.000Z,3.47
2023-03-30T03:07:23.070Z,3.42
2023-03-30T03:09:54.446Z,4.47
2023-03-30T03:12:27.651Z,3.35
2023-03-30T03:17:36.026Z,4.97
2023-03-30T03:20:12.901Z,4.03
2023-03-30T03:22:44.626Z,7.03
2023-03-30T03:25:16.959Z,2.75
2023-03-30T03:27:59.996Z,5.05
2023-03-30T03:30:38.395Z,3.10
2023-03-30T03:33:14.849Z,4.13
2023-03-30T03:35:55.582Z,3.83
2023-03-30T03:38:26.884Z,3.63
2023-03-30T03:41:01.310Z,3.85
2023-03-30T03:43:34.118Z,2.30
2023-03-30T03:46:07.281Z,2.33
2023-03-30T03:48:38.822Z,3.42
2023-03-30T03:51:11.458Z,2.03
2023-03-30T03:53:43.135Z,3.13
2023-03-30T03:56:16.580Z,5.30
2023-03-30T03:58:48.054Z,3.75
2023-03-30T04:01:19.210Z,3.97
2023-03-30T04:03:50.287Z,3.38
2023-03-30T04:06:30.854Z,4.50
2023-03-30T04:09:03.274Z,3.30
2023-03-30T04:11:54.298Z,4.15
2023-03-30T04:15:03.445Z,5.20
2023-03-30T04:17:47.560Z,4.20
2023-03-30T04:20:38.917Z,4.00
2023-03-30T04:23:24.501Z,3.83
2023-03-30T04:26:15.610Z,4.53
2023-03-30T04:29:06.387Z,4.20
2023-03-30T04:31:48.409Z,4.18
2023-03-30T04:34:25.479Z,2.85
2023-03-30T04:37:35.094Z,4.38
2023-03-30T04:40:12.409Z,3.67
2023-03-30T04:43:04.182Z,3.38
2023-03-30T04:45:58.091Z,3.53
2023-03-30T04:48:32.168Z,4.45
2023-03-30T04:51:42.325Z,5.22
2023-03-30T04:54:29.671Z,4.30
2023-03-30T04:57:20.269Z,4.30
2023-03-30T05:00:11.352Z,3.25
2023-03-30T05:03:05.760Z,4.68
2023-03-30T05:06:02.809Z,5.32
2023-03-30T05:09:09.497Z,3.80
2023-03-30T05:11:58.651Z,5.30
2023-03-30T05:14:44.701Z,4.88
2023-03-30T05:17:37.194Z,3.67
2023-03-30T05:20:26.654Z,3.83
2023-03-30T05:23:26.079Z,4.45
2023-03-30T05:26:25.935Z,4.20
2023-03-30T05:29:28.398Z,4.60
2023-03-30T05:32:28.324Z,4.43
2023-03-30T05:35:31.444Z,4.03
2023-03-30T05:38:15.938Z,4.53
2023-03-30T05:41:13.368Z,3.30
2023-03-30T05:44:02.410Z,3.78
2023-03-30T05:46:40.378Z,5.53
2023-03-30T05:49:32.947Z,2.55
2023-03-30T05:52:17.724Z,3.38
2023-03-30T05:55:27.783Z,3.30
2023-03-30T05:58:17.933Z,3.05
2023-03-30T06:01:27.785Z,4.40
2023-03-30T06:04:00.765Z,3.50
2023-03-30T06:06:33.845Z,4.60
2023-03-30T06:09:06.018Z,4.57
2023-03-30T06:11:39.338Z,3.88
2023-03-30T06:14:21.288Z,4.72
2023-03-30T06:17:13.668Z,4.88
2023-03-30T06:19:46.626Z,6.00
2023-03-30T06:22:17.811Z,4.22
2023-03-30T06:25:00.620Z,4.18
2023-03-30T06:27:34.492Z,4.18
2023-03-30T06:30:06.576Z,5.88
2023-03-30T06:32:38.474Z,3.72
2023-03-30T06:35:41.385Z,4.32
2023-03-30T06:38:12.494Z,4.25
2023-03-30T06:40:43.818Z,4.38
2023-03-30T06:43:23.858Z,4.95
2023-03-30T06:46:16.405Z,4.80
2023-03-30T06:48:50.134Z,7.00
2023-03-30T06:51:51.245Z,4.50
2023-03-30T06:54:23.109Z,3.38
2023-03-30T06:57:00.046Z,4.38
2023-03-30T06:59:33.168Z,3.50
2023-03-30T07:02:24.067Z,7.03
2023-03-30T07:05:08.158Z,7.80
2023-03-30T07:07:54.223Z,16.52
2023-03-30T07:10:25.785Z,28.52
2023-03-30T07:12:59.715Z,35.17
2023-03-30T07:15:32.320Z,10.90
2023-03-30T07:18:06.390Z,7.47
2023-03-30T07:20:37.981Z,3.72
2023-03-30T07:23:18.692Z,5.35
2023-03-30T07:25:51.220Z,4.07
2023-03-30T07:28:47.078Z,3.88
2023-03-30T07:31:18.702Z,5.90
2023-03-30T07:33:49.938Z,5.72
2023-03-30T07:36:25.183Z,7.97
2023-03-30T07:38:57.195Z,6.72
2023-03-30T07:41:28.354Z,7.35
2023-03-30T07:44:02.724Z,7.75
2023-03-30T07:46:33.993Z,8.70
2023-03-30T07:49:05.557Z,5.70
2023-03-30T07:51:36.994Z,6.25
2023-03-30T07:54:17.990Z,5.25
2023-03-30T07:57:21.246Z,3.72
2023-03-30T07:59:52.918Z,35.70
2023-03-30T08:02:43.198Z,33.85
2023-03-30T08:05:19.836Z,17.60
2023-03-30T08:08:09.394Z,6.03
2023-03-30T08:10:42.593Z,5.68
2023-03-30T08:13:14.543Z,3.90
2023-03-30T08:15:47.411Z,4.35
2023-03-30T08:18:18.525Z,3.15
2023-03-30T08:20:53.325Z,4.32
2023-03-30T08:23:25.008Z,3.17
2023-03-30T08:25:59.650Z,2.65
2023-03-30T08:28:30.948Z,5.10
2023-03-30T08:31:09.829Z,4.25
2023-03-30T08:33:41.370Z,5.53
2023-03-30T08:36:14.316Z,3.28
2023-03-30T08:38:46.658Z,7.03
2023-03-30T08:41:49.991Z,9.10
2023-03-30T08:44:37.687Z,7.53
2023-03-30T08:47:15.533Z,4.75
2023-03-30T08:50:03.270Z,3.42
2023-03-30T08:52:35.515Z,4.88
2023-03-30T08:55:07.989Z,3.30
2023-03-30T08:57:52.965Z,5.57
2023-03-30T09:00:35.771Z,5.05
2023-03-30T09:03:17.509Z,6.30
2023-03-30T09:06:14.404Z,3.45
2023-03-30T09:08:45.883Z,3.70
2023-03-30T09:11:21.608Z,3.28
2023-03-30T09:13:53.083Z,3.55
2023-03-30T09:16:24.221Z,3.40
2023-03-30T09:18:57.320Z,4.20
2023-03-30T09:21:31.670Z,4.15
2023-03-30T09:24:03.787Z,5.75
2023-03-30T09:26:54.711Z,7.43
2023-03-30T09:29:33.204Z,5.20
2023-03-30T09:32:08.237Z,5.80
2023-03-30T09:34:49.643Z,3.38
2023-03-30T09:37:22.911Z,4.60
2023-03-30T09:39:54.218Z,5.35
2023-03-30T09:43:10.703Z,4.28
2023-03-30T09:45:42.926Z,5.22
2023-03-30T09:50:47.036Z,3.65
2023-03-30T09:53:30.735Z,4.35
2023-03-30T09:56:06.418Z,4.57
2023-03-30T09:58:38.452Z,2.90
2023-03-30T10:03:43.442Z,8.27
2023-03-30T10:06:23.217Z,15.13
2023-03-30T10:08:59.298Z,7.47
2023-03-30T10:11:45.397Z,5.60
2023-03-30T10:14:38.097Z,5.75
2023-03-30T10:17:09.433Z,3.90
2023-03-30T10:19:48.630Z,4.57
2023-03-30T10:22:26.075Z,5.68
2023-03-30T10:24:58.843Z,82.63
2023-03-30T10:27:35.634Z,100.50
2023-03-30T10:30:14.194Z,480.17
2023-03-30T10:32:50.633Z,277.55
2023-03-30T10:35:24.782Z,151.55
2023-03-30T10:37:58.381Z,82.03
2023-03-30T10:40:42.259Z,37.42
2023-03-30T10:43:36.502Z,37.53
2023-03-30T10:46:20.358Z,38.97
2023-03-30T10:49:03.560Z,40.00
2023-03-30T10:51:51.921Z,82.15
2023-03-30T10:54:32.157Z,32.17
2023-03-30T10:57:22.243Z,22.77
2023-03-30T11:00:27.215Z,11.40
2023-03-30T11:03:21.522Z,5.93
2023-03-30T11:05:56.479Z,6.15
2023-03-30T11:08:32.622Z,4.70
2023-03-30T11:11:04.024Z,5.22
2023-03-30T11:13:45.742Z,4.28
2023-03-30T11:16:25.279Z,6.18
2023-03-30T11:19:02.620Z,4.20
2023-03-30T11:21:33.499Z,4.03
2023-03-30T11:24:13.321Z,4.50
2023-03-30T11:26:50.408Z,3.25
2023-03-30T11:29:33.923Z,4.13
2023-03-30T11:32:17.445Z,3.45
2023-03-30T11:35:02.240Z,6.35
2023-03-30T11:38:10.238Z,8.20
2023-03-30T11:40:53.492Z,5.13
2023-03-30T11:43:25.772Z,5.93
2023-03-30T11:46:24.664Z,8.95
2023-03-30T11:49:10.960Z,6.97
2023-03-30T11:52:11.613Z,4.68
2023-03-30T11:55:13.462Z,4.97
2023-03-30T11:58:06.202Z,7.18
2023-03-30T12:01:12.251Z,12.52
2023-03-30T12:03:44.707Z,16.38
2023-03-30T12:06:35.608Z,15.30
2023-03-30T12:09:21.759Z,21.27
2023-03-30T12:12:17.192Z,22.52
2023-03-30T12:15:03.937Z,53.35
2023-03-30T12:17:44.917Z,22.63
2023-03-30T12:20:24.678Z,20.77
2023-03-30T12:23:01.042Z,21.08
2023-03-30T12:26:06.501Z,15.73
2023-03-30T12:31:52.507Z,17.13
2023-03-30T12:34:25.167Z,12.77
2023-03-30T12:37:06.122Z,9.75
2023-03-30T12:39:52.564Z,9.30
2023-03-30T12:42:28.466Z,8.52
2023-03-30T12:45:22.634Z,7.05
2023-03-30T12:48:15.867Z,25.58
2023-03-30T12:51:18.530Z,15.93
2023-03-30T12:54:19.240Z,7.55
2023-03-30T12:57:24.358Z,10.70
2023-03-30T13:00:25.116Z,11.57
2023-03-30T13:03:07.777Z,15.80
2023-03-30T13:05:43.240Z,18.20
2023-03-30T13:08:40.002Z,14.32
2023-03-30T13:11:20.853Z,12.27
2023-03-30T13:14:00.170Z,12.70
2023-03-30T13:16:57.156Z,11.52
2023-03-30T13:19:34.113Z,10.68
2023-03-30T13:22:14.406Z,10.30
2023-03-30T13:24:46.018Z,9.82
2023-03-30T13:27:17.193Z,11.63
2023-03-30T13:30:01.052Z,28.40
2023-03-30T13:33:02.966Z,13.35
2023-03-30T13:35:56.461Z,14.32
2023-03-30T13:38:44.798Z,11.18
2023-03-30T13:41:21.679Z,10.98
2023-03-30T13:43:59.740Z,12.25
2023-03-30T13:46:56.962Z,8.23
2023-03-30T13:49:49.292Z,9.65
2023-03-30T13:52:25.063Z,9.57
2023-03-30T13:54:56.358Z,9.02
2023-03-30T13:57:37.729Z,9.15
2023-03-30T14:00:40.975Z,8.27
2023-03-30T14:03:33.876Z,7.80
2023-03-30T14:06:10.834Z,6.47
2023-03-30T14:08:43.753Z,7.40
2023-03-30T14:11:26.301Z,8.70
2023-03-30T14:13:57.169Z,7.18
2023-03-30T14:16:30.938Z,6.97
2023-03-30T14:19:36.891Z,7.97
2023-03-30T14:22:28.949Z,6.05
2023-03-30T14:25:02.210Z,6.18
2023-03-30T14:27:39.843Z,6.25
2023-03-30T14:30:33.550Z,8.60
2023-03-30T14:33:13.305Z,6.68
2023-03-30T14:35:58.948Z,8.95
2023-03-30T14:38:38.632Z,7.53
2023-03-30T14:41:18.152Z,6.38
2023-03-30T14:43:55.280Z,7.57
2023-03-30T14:46:29.688Z,7.10
2023-03-30T14:49:01.014Z,7.63
2023-03-30T14:51:43.758Z,8.40
2023-03-30T14:54:23.752Z,5.97
2023-03-30T14:57:07.767Z,9.20
2023-03-30T14:59:45.798Z,6.68
2023-03-30T15:02:29.484Z,6.53
2023-03-30T15:05:01.583Z,7.15
2023-03-30T15:07:34.459Z,6.70
2023-03-30T15:10:06.213Z,8.20
2023-03-30T15:12:42.822Z,6.45
2023-03-30T15:15:17.419Z,6.75
2023-03-30T15:17:51.144Z,7.15
2023-03-30T15:20:22.752Z,7.03
2023-03-30T15:22:54.316Z,6.57
2023-03-30T15:25:37.033Z,7.68
2023-03-30T15:28:10.341Z,7.97
2023-03-30T15:30:45.776Z,6.20
2023-03-30T15:33:37.739Z,6.43
2023-03-30T15:36:14.724Z,6.70
2023-03-30T15:38:53.649Z,8.10
2023-03-30T15:41:45.934Z,6.47
2023-03-30T15:44:24.061Z,7.28
2023-03-30T15:46:57.846Z,6.97
2023-03-30T15:49:44.167Z,7.97
2023-03-30T15:52:44.451Z,5.85
2023-03-30T15:55:25.863Z,4.18
2023-03-30T15:57:57.555Z,5.93
2023-03-30T16:00:33.964Z,6.60
2023-03-30T16:03:05.793Z,6.30
2023-03-30T16:05:37.064Z,6.77
2023-03-30T16:08:08.899Z,5.18
2023-03-30T16:10:40.370Z,5.38
2023-03-30T16:13:13.736Z,7.65
2023-03-30T16:15:44.966Z,5.68
2023-03-30T16:18:16.630Z,8.52
2023-03-30T16:20:47.997Z,8.07
2023-03-30T16:23:19.333Z,7.53
2023-03-30T16:25:50.640Z,7.50
2023-03-30T16:28:22.005Z,6.93
2023-03-30T16:30:56.031Z,5.60
2023-03-30T16:33:27.462Z,6.78
2023-03-30T16:35:58.979Z,6.93
2023-03-30T16:38:30.395Z,6.78
2023-03-30T16:41:03.114Z,9.57
2023-03-30T16:43:34.650Z,7.90
2023-03-30T16:46:06.230Z,5.72
2023-03-30T16:48:37.659Z,4.82
2023-03-30T16:51:09.285Z,7.70
2023-03-30T16:53:40.467Z,5.78
2023-03-30T16:56:19.580Z,7.60
2023-03-30T16:58:50.869Z,5.97
2023-03-30T17:01:22.137Z,6.68
2023-03-30T17:03:54.008Z,7.30
2023-03-30T17:06:25.336Z,6.57
2023-03-30T17:08:57.055Z,6.03
2023-03-30T17:11:28.143Z,6.00
2023-03-30T17:13:59.502Z,7.00
2023-03-30T17:16:32.425Z,6.07
2023-03-30T17:19:03.793Z,4.95
2023-03-30T17:21:34.935Z,5.63
2023-03-30T17:24:06.123Z,4.50
2023-03-30T17:26:37.210Z,4.50
2023-03-30T17:29:08.368Z,5.55
2023-03-30T17:31:46.937Z,8.00
2023-03-30T17:34:17.862Z,7.63
2023-03-30T17:36:49.278Z,9.67
2023-03-30T17:39:20.463Z,10.23
2023-03-30T17:41:52.155Z,7.68
2023-03-30T17:44:23.391Z,6.57
2023-03-30T17:46:54.965Z,6.43
2023-03-30T17:49:26.131Z,6.10
2023-03-30T17:51:57.690Z,5.43
2023-03-30T17:54:29.227Z,4.30
2023-03-30T17:57:00.732Z,3.90
2023-03-30T17:59:32.900Z,5.38
2023-03-30T18:02:04.040Z,5.00
2023-03-30T18:04:36.802Z,4.43
2023-03-30T18:07:07.842Z,5.13
2023-03-30T18:09:39.066Z,4.97
2023-03-30T18:12:10.292Z,5.78
2023-03-30T18:14:41.687Z,6.68
2023-03-30T18:17:14.372Z,3.92
2023-03-30T18:19:47.096Z,9.30
2023-03-30T18:22:18.584Z,7.78
2023-03-30T18:24:50.460Z,4.90
2023-03-30T18:27:21.511Z,4.30
2023-03-30T18:29:53.139Z,5.53
2023-03-30T18:32:29.199Z,5.25
2023-03-30T18:35:09.357Z,4.65
2023-03-30T18:37:40.873Z,6.38
2023-03-30T18:40:28.837Z,5.15
2023-03-30T18:43:01.089Z,4.03
2023-03-30T18:45:39.152Z,5.18
2023-03-30T18:48:12.909Z,6.30
2023-03-30T18:50:45.266Z,5.80
2023-03-30T18:53:24.701Z,4.70
2023-03-30T18:56:03.218Z,5.45
2023-03-30T18:58:43.157Z,5.40
2023-03-30T19:01:33.713Z,5.82
2023-03-30T19:04:14.711Z,5.30
2023-03-30T19:06:47.701Z,4.70
2023-03-30T19:09:23.100Z,4.30
2023-03-30T19:12:01.160Z,4.18
2023-03-30T19:14:32.424Z,4.35
2023-03-30T19:17:04.039Z,4.85
2023-03-30T19:19:35.071Z,4.88
2023-03-30T19:22:06.242Z,5.55
2023-03-30T19:24:38.095Z,5.00
2023-03-30T19:27:09.882Z,4.70
2023-03-30T19:29:42.152Z,9.05
2023-03-30T19:32:13.456Z,4.85
2023-03-30T19:34:45.224Z,7.43
2023-03-30T19:37:17.557Z,5.90
2023-03-30T19:42:19.443Z,5.63
2023-03-30T19:44:50.944Z,4.65
2023-03-30T19:47:22.433Z,3.55
2023-03-30T19:49:53.614Z,6.93
2023-03-30T19:52:25.684Z,4.72
2023-03-30T19:57:27.726Z,5.25
2023-03-30T19:59:59.061Z,5.47
2023-03-30T20:02:30.501Z,4.53
2023-03-30T20:05:01.717Z,5.82
2023-03-30T20:07:33.306Z,4.38
2023-03-30T20:10:05.350Z,7.13
2023-03-30T20:12:37.509Z,5.68
2023-03-30T20:15:11.087Z,6.38
2023-03-30T20:17:42.345Z,4.15
2023-03-30T20:20:15.641Z,72.65
2023-03-30T20:22:47.737Z,9.30
2023-03-30T20:25:18.978Z,5.88
2023-03-30T20:27:50.747Z,9.95
2023-03-30T20:33:06.740Z,7.75
2023-03-30T20:35:39.578Z,6.38
2023-03-30T20:38:10.427Z,8.70
2023-03-30T20:40:42.009Z,6.20
2023-03-30T20:43:13.531Z,8.10
2023-03-30T20:45:49.585Z,4.88
2023-03-30T20:48:34.869Z,5.65
2023-03-30T20:51:06.737Z,6.20
2023-03-30T20:53:39.166Z,5.45
2023-03-30T20:56:12.506Z,7.10
2023-03-30T20:58:44.437Z,8.60
2023-03-30T21:01:28.382Z,6.45
2023-03-30T21:04:01.440Z,8.68
2023-03-30T21:06:33.804Z,28.38
2023-03-30T21:09:07.458Z,38.15
2023-03-30T21:11:42.692Z,9.70
2023-03-30T21:14:15.661Z,41.50
2023-03-30T21:16:48.157Z,8.80
2023-03-30T21:19:19.379Z,7.43
2023-03-30T21:21:50.934Z,125.20
2023-03-30T21:24:22.174Z,17.17
2023-03-30T21:26:53.544Z,5.57
2023-03-30T21:29:25.583Z,6.18
2023-03-30T21:31:56.797Z,67.90
2023-03-30T21:34:28.061Z,26.15
2023-03-30T21:36:59.560Z,10.82
2023-03-30T21:39:31.373Z,11.45
2023-03-30T21:42:02.580Z,29.70
2023-03-30T21:44:38.134Z,62.53
2023-03-30T21:47:09.396Z,9.38
2023-03-30T21:49:40.732Z,18.05
2023-03-30T21:52:12.026Z,6.97
2023-03-30T21:54:43.381Z,7.85
2023-03-30T21:57:14.699Z,6.30
2023-03-30T21:59:46.888Z,6.72
2023-03-30T22:02:18.046Z,8.13
2023-03-30T22:04:49.653Z,8.15
2023-03-30T22:07:20.964Z,7.65
2023-03-30T22:09:53.366Z,8.73
2023-03-30T22:12:24.697Z,8.23
2023-03-30T22:14:55.636Z,9.48
2023-03-30T22:17:36.378Z,7.65
2023-03-30T22:20:08.480Z,8.13
2023-03-30T22:22:39.796Z,12.23
2023-03-30T22:25:11.254Z,10.23
2023-03-30T22:27:43.159Z,9.55
2023-03-30T22:30:15.176Z,5.38
2023-03-30T22:32:46.605Z,18.75
2023-03-30T22:35:18.218Z,9.45
2023-03-30T22:37:49.408Z,8.98
2023-03-30T22:40:21.058Z,7.53
2023-03-30T22:42:52.228Z,11.07
2023-03-30T22:47:58.460Z,9.38
2023-03-30T22:50:31.294Z,7.70
2023-03-30T22:53:02.502Z,7.47
2023-03-30T22:55:33.394Z,12.30
2023-03-30T22:58:04.350Z,5.25
2023-03-30T23:00:36.219Z,9.15
2023-03-30T23:03:07.698Z,5.60
2023-03-30T23:05:39.042Z,6.00
2023-03-30T23:08:12.263Z,17.00
2023-03-30T23:10:45.263Z,17.92
2023-03-30T23:13:16.648Z,21.30
2023-03-30T23:15:50.116Z,26.90
2023-03-30T23:18:22.012Z,48.67
2023-03-30T23:20:57.105Z,23.65
2023-03-30T23:23:28.524Z,5.18
2023-03-30T23:28:34.963Z,4.85
2023-03-30T23:31:17.258Z,7.07
2023-03-30T23:33:48.623Z,130.65
2023-03-30T23:36:20.661Z,5.22
2023-03-30T23:39:01.967Z,5.55
2023-03-30T23:41:33.069Z,5.57
2023-03-30T23:44:04.336Z,4.05
2023-03-30T23:49:07.091Z,14.20
2023-03-30T23:51:38.143Z,6.13
2023-03-30T23:54:09.204Z,6.03
2023-03-30T23:56:43.316Z,48.92
2023-03-30T23:59:14.701Z,10.60
